createdAt,value
2019-03-21T00:02:04.199Z,20.45
2019-03-21T00:04:32.658Z,20.40
2019-03-21T00:07:01.114Z,20.15
2019-03-21T00:09:29.661Z,20.05
2019-03-21T00:12:08.677Z,21.73
2019-03-21T00:14:54.952Z,22.07
2019-03-21T00:17:26.638Z,23.02
2019-03-21T00:19:55.095Z,20.45
2019-03-21T00:22:23.594Z,22.07
2019-03-21T00:24:52.041Z,23.50
2019-03-21T00:27:20.502Z,22.00
2019-03-21T00:29:49.005Z,23.10
2019-03-21T00:32:17.542Z,22.73
2019-03-21T00:34:45.991Z,22.40
2019-03-21T00:37:14.479Z,22.27
2019-03-21T00:39:42.930Z,22.30
2019-03-21T00:42:11.413Z,22.17
2019-03-21T00:44:39.866Z,22.60
2019-03-21T00:47:08.355Z,23.20
2019-03-21T00:49:36.809Z,22.93
2019-03-21T00:52:05.730Z,23.45
2019-03-21T00:54:34.186Z,23.15
2019-03-21T00:57:02.631Z,21.27
2019-03-21T00:59:31.194Z,23.47
2019-03-21T01:01:59.641Z,22.10
2019-03-21T01:04:28.828Z,24.20
2019-03-21T01:06:57.329Z,22.73
2019-03-21T01:09:25.774Z,23.80
2019-03-21T01:11:54.226Z,21.45
2019-03-21T01:14:29.828Z,23.35
2019-03-21T01:16:52.907Z,23.73
2019-03-21T01:19:21.355Z,23.67
2019-03-21T01:21:49.831Z,22.75
2019-03-21T01:24:18.285Z,24.43
2019-03-21T01:26:46.770Z,24.98
2019-03-21T01:29:15.289Z,27.22
2019-03-21T01:31:43.789Z,26.87
2019-03-21T01:34:12.249Z,25.25
2019-03-21T01:36:40.696Z,28.42
2019-03-21T01:39:09.184Z,27.15
2019-03-21T01:41:37.633Z,26.15
2019-03-21T01:44:06.181Z,28.77
2019-03-21T01:46:34.674Z,27.40
2019-03-21T01:49:03.185Z,29.30
2019-03-21T01:51:31.912Z,28.17
2019-03-21T01:54:00.421Z,27.35
2019-03-21T01:56:30.520Z,28.23
2019-03-21T01:58:59.087Z,26.82
2019-03-21T02:01:27.602Z,28.57
2019-03-21T02:03:56.050Z,28.98
2019-03-21T02:06:24.564Z,29.10
2019-03-21T02:08:53.080Z,27.07
2019-03-21T02:11:33.828Z,28.92
2019-03-21T02:14:02.273Z,28.02
2019-03-21T02:16:30.730Z,27.65
2019-03-21T02:18:59.230Z,28.65
2019-03-21T02:21:27.684Z,28.12
2019-03-21T02:23:56.147Z,27.62
2019-03-21T02:26:24.749Z,28.50
2019-03-21T02:28:53.203Z,29.70
2019-03-21T02:31:21.669Z,27.75
2019-03-21T02:33:50.247Z,30.17
2019-03-21T02:36:18.694Z,29.80
2019-03-21T02:38:47.155Z,29.72
2019-03-21T02:41:16.954Z,29.70
2019-03-21T02:43:45.467Z,30.20
2019-03-21T02:46:14.124Z,30.05
2019-03-21T02:48:42.651Z,31.00
2019-03-21T02:51:11.145Z,29.95
2019-03-21T02:53:39.662Z,31.17
2019-03-21T02:56:11.577Z,29.35
2019-03-21T02:58:40.134Z,30.85
2019-03-21T03:01:08.584Z,30.85
2019-03-21T03:03:37.052Z,30.80
2019-03-21T03:06:05.696Z,31.48
2019-03-21T03:08:34.153Z,29.87
2019-03-21T03:11:10.818Z,30.17
2019-03-21T03:13:39.144Z,29.40
2019-03-21T03:16:07.670Z,28.27
2019-03-21T03:18:36.116Z,28.70
2019-03-21T03:21:04.754Z,30.17
2019-03-21T03:23:33.202Z,30.12
2019-03-21T03:26:02.190Z,29.55
2019-03-21T03:28:33.843Z,29.18
2019-03-21T03:31:02.354Z,27.40
2019-03-21T03:33:31.100Z,28.02
2019-03-21T03:35:59.570Z,30.02
2019-03-21T03:38:28.087Z,30.57
2019-03-21T03:40:59.755Z,31.23
2019-03-21T03:43:28.347Z,29.55
2019-03-21T03:45:56.827Z,29.95
2019-03-21T03:48:26.621Z,29.52
2019-03-21T03:50:55.104Z,30.95
2019-03-21T03:53:23.634Z,30.00
2019-03-21T03:55:52.145Z,29.95
2019-03-21T03:58:28.947Z,31.52
2019-03-21T04:00:57.570Z,31.25
2019-03-21T04:03:27.740Z,30.90
2019-03-21T04:05:56.502Z,32.93
2019-03-21T04:08:25.005Z,31.02
2019-03-21T04:10:56.260Z,31.95
2019-03-21T04:13:24.744Z,33.40
2019-03-21T04:15:54.038Z,32.98
2019-03-21T04:18:24.697Z,32.95
2019-03-21T04:23:25.827Z,32.00
2019-03-21T04:26:12.404Z,31.17
2019-03-21T04:28:42.015Z,33.25
2019-03-21T04:31:10.453Z,32.40
2019-03-21T04:33:38.929Z,33.15
2019-03-21T04:36:07.509Z,33.40
2019-03-21T04:38:36.023Z,31.73
2019-03-21T04:41:04.638Z,32.13
2019-03-21T04:43:33.127Z,31.27
2019-03-21T04:46:03.565Z,31.27
2019-03-21T04:48:31.780Z,30.15
2019-03-21T04:51:00.220Z,30.48
2019-03-21T04:53:28.674Z,32.10
2019-03-21T04:55:57.173Z,32.33
2019-03-21T04:58:25.636Z,30.50
2019-03-21T05:00:56.103Z,33.15
2019-03-21T05:05:56.337Z,33.88
2019-03-21T05:08:24.855Z,31.50
2019-03-21T05:10:53.349Z,31.00
2019-03-21T05:13:21.819Z,30.43
2019-03-21T05:15:51.606Z,31.80
2019-03-21T05:18:23.836Z,32.65
2019-03-21T05:20:52.352Z,31.33
2019-03-21T05:23:20.850Z,31.85
2019-03-21T05:25:49.306Z,30.43
2019-03-21T05:28:17.758Z,30.75
2019-03-21T05:30:55.283Z,32.13
2019-03-21T05:33:23.728Z,28.50
2019-03-21T05:35:52.528Z,28.92
2019-03-21T05:38:22.522Z,29.00
2019-03-21T05:40:50.983Z,29.85
2019-03-21T05:43:25.579Z,33.30
2019-03-21T05:45:54.036Z,32.67
2019-03-21T05:48:22.531Z,31.25
2019-03-21T05:50:50.983Z,31.02
2019-03-21T05:53:19.443Z,30.90
2019-03-21T05:55:47.941Z,30.05
2019-03-21T05:58:16.438Z,31.12
2019-03-21T06:00:51.201Z,27.77
2019-03-21T06:03:33.041Z,28.25
2019-03-21T06:06:13.498Z,28.45
2019-03-21T06:11:10.594Z,28.42
2019-03-21T06:13:39.046Z,27.22
2019-03-21T06:16:08.829Z,28.27
2019-03-21T06:18:49.157Z,29.77
2019-03-21T06:21:23.444Z,28.70
2019-03-21T06:24:14.545Z,29.87
2019-03-21T06:26:51.936Z,27.85
2019-03-21T06:29:20.444Z,28.52
2019-03-21T06:31:49.340Z,27.35
2019-03-21T06:34:17.817Z,27.37
2019-03-21T06:36:46.309Z,27.60
2019-03-21T06:39:14.755Z,28.17
2019-03-21T06:41:43.205Z,26.90
2019-03-21T06:44:11.692Z,28.95
2019-03-21T06:46:48.749Z,30.27
2019-03-21T06:49:10.441Z,28.35
2019-03-21T06:51:38.887Z,27.45
2019-03-21T06:54:07.378Z,27.37
2019-03-21T06:56:35.829Z,26.30
2019-03-21T06:59:04.462Z,30.20
2019-03-21T07:01:32.983Z,29.00
2019-03-21T07:04:07.184Z,29.57
2019-03-21T07:06:31.636Z,29.72
2019-03-21T07:09:00.215Z,29.98
2019-03-21T07:11:28.693Z,32.10
2019-03-21T07:13:57.193Z,28.65
2019-03-21T07:16:25.682Z,30.82
2019-03-21T07:18:54.215Z,29.82
2019-03-21T07:21:22.747Z,29.98
2019-03-21T07:23:51.206Z,30.15
2019-03-21T07:26:19.695Z,29.72
2019-03-21T07:28:48.149Z,30.80
2019-03-21T07:31:16.647Z,29.72
2019-03-21T07:33:45.379Z,30.65
2019-03-21T07:36:13.891Z,30.02
2019-03-21T07:38:42.427Z,29.77
2019-03-21T07:41:10.868Z,31.07
2019-03-21T07:43:39.320Z,30.35
2019-03-21T07:46:07.829Z,29.90
2019-03-21T07:48:36.294Z,29.20
2019-03-21T07:51:04.827Z,31.17
2019-03-21T07:53:33.323Z,29.07
2019-03-21T07:56:01.773Z,30.52
2019-03-21T07:58:30.285Z,29.32
2019-03-21T08:00:58.909Z,29.12
2019-03-21T08:03:27.358Z,30.12
2019-03-21T08:05:55.876Z,28.42
2019-03-21T08:08:24.331Z,28.98
2019-03-21T08:10:52.786Z,28.12
2019-03-21T08:13:21.298Z,27.95
2019-03-21T08:15:49.824Z,27.45
2019-03-21T08:18:18.390Z,26.57
2019-03-21T08:20:56.102Z,28.23
2019-03-21T08:23:17.038Z,26.60
2019-03-21T08:25:45.512Z,26.80
2019-03-21T08:28:13.983Z,28.70
2019-03-21T08:31:02.059Z,28.45
2019-03-21T08:33:30.517Z,26.70
2019-03-21T08:35:59.090Z,26.02
2019-03-21T08:38:27.632Z,26.77
2019-03-21T08:40:56.149Z,26.10
2019-03-21T08:43:24.647Z,26.37
2019-03-21T08:45:53.094Z,28.05
2019-03-21T08:48:21.663Z,27.05
2019-03-21T08:50:50.118Z,27.27
2019-03-21T08:53:18.641Z,27.27
2019-03-21T08:55:47.097Z,28.35
2019-03-21T08:58:15.540Z,28.80
2019-03-21T09:00:44.035Z,28.45
2019-03-21T09:03:12.494Z,28.90
2019-03-21T09:05:41.006Z,27.62
2019-03-21T09:08:09.453Z,27.42
2019-03-21T09:10:37.911Z,28.62
2019-03-21T09:13:06.460Z,29.67
2019-03-21T09:15:34.975Z,30.95
2019-03-21T09:18:03.448Z,30.25
2019-03-21T09:20:31.966Z,29.32
2019-03-21T09:23:00.488Z,29.82
2019-03-21T09:25:28.941Z,30.00
2019-03-21T09:28:02.646Z,30.75
2019-03-21T09:30:27.602Z,30.00
2019-03-21T09:32:56.053Z,29.95
2019-03-21T09:35:24.559Z,30.57
2019-03-21T09:37:53.011Z,29.82
2019-03-21T09:40:21.526Z,31.85
2019-03-21T09:42:49.964Z,30.85
2019-03-21T09:45:18.591Z,31.77
2019-03-21T09:47:47.069Z,29.65
2019-03-21T09:50:27.151Z,29.35
2019-03-21T09:52:56.580Z,30.82
2019-03-21T09:55:25.275Z,28.42
2019-03-21T09:57:53.797Z,26.17
2019-03-21T10:00:36.143Z,27.20
2019-03-21T10:03:05.637Z,25.32
2019-03-21T10:05:34.118Z,23.93
2019-03-21T10:08:03.211Z,19.82
2019-03-21T10:10:33.501Z,17.75
2019-03-21T10:13:02.120Z,18.82
2019-03-21T10:15:30.634Z,15.93
2019-03-21T10:17:59.090Z,16.20
2019-03-21T10:20:27.545Z,15.88
2019-03-21T10:22:56.072Z,17.48
2019-03-21T10:25:26.716Z,16.97
2019-03-21T10:27:54.715Z,14.70
2019-03-21T10:30:39.993Z,14.25
2019-03-21T10:33:10.182Z,16.17
2019-03-21T10:35:38.701Z,15.98
2019-03-21T10:38:07.786Z,16.12
2019-03-21T10:40:36.821Z,16.37
2019-03-21T10:43:06.041Z,16.05
2019-03-21T10:45:34.714Z,16.80
2019-03-21T10:48:03.281Z,17.90
2019-03-21T10:50:37.179Z,16.62
2019-03-21T10:53:07.073Z,15.98
2019-03-21T10:55:35.530Z,17.77
2019-03-21T10:58:05.278Z,16.85
2019-03-21T11:00:34.503Z,18.92
2019-03-21T11:03:02.956Z,19.82
2019-03-21T11:05:31.448Z,20.08
2019-03-21T11:07:59.975Z,18.73
2019-03-21T11:10:28.515Z,19.02
2019-03-21T11:12:56.965Z,19.57
2019-03-21T11:15:25.415Z,18.12
2019-03-21T11:17:55.174Z,18.25
2019-03-21T11:20:28.716Z,18.37
2019-03-21T11:22:57.171Z,16.95
2019-03-21T11:25:25.694Z,16.75
2019-03-21T11:27:55.375Z,18.02
2019-03-21T11:30:32.960Z,16.35
2019-03-21T11:33:01.671Z,16.40
2019-03-21T11:35:30.942Z,16.87
2019-03-21T11:37:59.417Z,17.62
2019-03-21T11:40:27.873Z,17.00
2019-03-21T11:42:56.846Z,16.23
2019-03-21T11:45:25.385Z,15.60
2019-03-21T11:47:54.056Z,16.40
2019-03-21T11:50:22.781Z,15.38
2019-03-21T11:52:51.228Z,15.10
2019-03-21T11:55:19.673Z,15.88
2019-03-21T11:57:48.158Z,15.32
2019-03-21T12:00:16.958Z,15.15
2019-03-21T12:02:45.542Z,16.42
2019-03-21T12:05:13.992Z,15.72
2019-03-21T12:07:42.441Z,15.20
2019-03-21T12:10:12.365Z,15.45
2019-03-21T12:12:40.859Z,15.05
2019-03-21T12:15:11.054Z,15.28
2019-03-21T12:17:39.548Z,15.80
2019-03-21T12:20:10.135Z,15.72
2019-03-21T12:22:38.612Z,16.37
2019-03-21T12:25:27.921Z,16.37
2019-03-21T12:27:56.675Z,15.48
2019-03-21T12:30:35.693Z,15.58
2019-03-21T12:33:04.598Z,16.60
2019-03-21T12:35:33.044Z,17.25
2019-03-21T12:38:01.689Z,17.25
2019-03-21T12:40:30.205Z,17.52
2019-03-21T12:42:58.662Z,17.32
2019-03-21T12:45:27.186Z,16.48
2019-03-21T12:47:55.681Z,17.42
2019-03-21T12:50:24.134Z,17.50
2019-03-21T12:52:52.617Z,17.98
2019-03-21T12:55:21.081Z,18.15
2019-03-21T12:57:49.871Z,16.30
2019-03-21T13:00:33.074Z,17.73
2019-03-21T13:03:01.637Z,16.93
2019-03-21T13:05:31.190Z,16.97
2019-03-21T13:07:59.718Z,19.10
2019-03-21T13:10:28.252Z,18.92
2019-03-21T13:12:57.533Z,19.23
2019-03-21T13:15:30.076Z,21.30
2019-03-21T13:17:56.249Z,21.10
2019-03-21T13:20:24.769Z,20.20
2019-03-21T13:22:53.776Z,20.02
2019-03-21T13:25:22.496Z,20.17
2019-03-21T13:27:50.986Z,23.57
2019-03-21T13:30:19.679Z,20.27
2019-03-21T13:32:48.244Z,21.95
2019-03-21T13:35:16.698Z,20.43
2019-03-21T13:37:45.224Z,20.27
2019-03-21T13:40:15.560Z,20.17
2019-03-21T13:42:44.009Z,20.65
2019-03-21T13:45:12.562Z,20.85
2019-03-21T13:47:41.050Z,22.37
2019-03-21T13:50:09.933Z,21.33
2019-03-21T13:52:38.435Z,20.82
2019-03-21T13:55:09.990Z,21.00
2019-03-21T13:57:38.512Z,21.52
2019-03-21T14:00:10.159Z,21.37
2019-03-21T14:02:38.991Z,21.40
2019-03-21T14:05:08.067Z,22.65
2019-03-21T14:07:36.513Z,23.10
2019-03-21T14:10:09.969Z,23.47
2019-03-21T14:12:38.495Z,22.05
2019-03-21T14:15:11.893Z,23.00
2019-03-21T14:17:40.423Z,24.07
2019-03-21T14:20:10.641Z,23.75
2019-03-21T14:22:39.160Z,24.27
2019-03-21T14:25:08.445Z,23.87
2019-03-21T14:27:36.956Z,24.98
2019-03-21T14:30:08.659Z,24.55
2019-03-21T14:32:37.233Z,25.60
2019-03-21T14:35:09.129Z,24.82
2019-03-21T14:37:37.586Z,27.30
2019-03-21T14:40:13.829Z,27.80
2019-03-21T14:42:42.745Z,26.97
2019-03-21T14:45:14.187Z,26.48
2019-03-21T14:47:42.633Z,28.87
2019-03-21T14:50:13.471Z,27.60
2019-03-21T14:52:42.085Z,27.27
2019-03-21T14:55:13.522Z,27.60
2019-03-21T14:57:41.970Z,27.42
2019-03-21T15:00:13.696Z,28.65
2019-03-21T15:02:42.294Z,28.40
2019-03-21T15:05:10.814Z,27.65
2019-03-21T15:07:39.279Z,29.65
2019-03-21T15:10:10.923Z,29.45
2019-03-21T15:12:39.459Z,29.45
2019-03-21T15:15:10.059Z,28.00
2019-03-21T15:17:38.558Z,29.82
2019-03-21T15:20:09.687Z,28.50
2019-03-21T15:22:38.138Z,26.57
2019-03-21T15:25:08.312Z,28.45
2019-03-21T15:27:36.906Z,27.42
2019-03-21T15:30:11.322Z,28.45
2019-03-21T15:32:41.830Z,28.20
2019-03-21T15:35:11.867Z,28.00
2019-03-21T15:37:40.317Z,29.00
2019-03-21T15:40:11.455Z,30.00
2019-03-21T15:42:39.991Z,31.48
2019-03-21T15:45:22.323Z,31.42
2019-03-21T15:47:42.532Z,31.97
2019-03-21T15:50:16.010Z,32.20
2019-03-21T15:52:44.548Z,31.30
2019-03-21T15:55:13.012Z,30.17
2019-03-21T15:57:41.533Z,28.65
2019-03-21T16:00:16.059Z,30.43
2019-03-21T16:02:44.518Z,28.57
2019-03-21T16:05:13.129Z,30.92
2019-03-21T16:07:41.583Z,31.10
2019-03-21T16:10:10.034Z,30.48
2019-03-21T16:12:38.563Z,31.73
2019-03-21T16:15:08.458Z,32.50
2019-03-21T16:17:36.990Z,32.67
2019-03-21T16:20:08.542Z,30.08
2019-03-21T16:22:37.060Z,31.97
2019-03-21T16:25:07.699Z,34.23
2019-03-21T16:27:37.382Z,33.95
2019-03-21T16:30:08.649Z,36.85
2019-03-21T16:32:37.184Z,33.50
2019-03-21T16:35:28.569Z,33.30
2019-03-21T16:37:57.054Z,32.70
2019-03-21T16:40:25.506Z,32.17
2019-03-21T16:42:54.035Z,31.55
2019-03-21T16:45:22.570Z,31.60
2019-03-21T16:47:51.110Z,33.95
2019-03-21T16:50:19.597Z,33.78
2019-03-21T16:52:48.049Z,32.45
2019-03-21T16:55:16.568Z,30.65
2019-03-21T16:57:45.028Z,31.05
2019-03-21T17:00:17.737Z,30.48
2019-03-21T17:02:47.057Z,30.30
2019-03-21T17:05:15.598Z,28.32
2019-03-21T17:07:44.120Z,30.02
2019-03-21T17:10:14.061Z,28.98
2019-03-21T17:12:42.666Z,29.75
2019-03-21T17:15:12.800Z,31.50
2019-03-21T17:17:41.427Z,31.48
2019-03-21T17:20:11.899Z,29.35
2019-03-21T17:25:08.600Z,31.50
2019-03-21T17:27:37.059Z,29.07
2019-03-21T17:30:11.251Z,29.23
2019-03-21T17:32:39.779Z,31.73
2019-03-21T17:35:08.462Z,28.60
2019-03-21T17:37:36.959Z,31.05
2019-03-21T17:40:08.583Z,29.40
2019-03-21T17:42:37.046Z,30.10
2019-03-21T17:45:11.104Z,29.40
2019-03-21T17:47:39.552Z,30.48
2019-03-21T17:50:09.043Z,30.75
2019-03-21T17:52:37.525Z,29.93
2019-03-21T17:55:07.069Z,32.20
2019-03-21T17:57:35.527Z,29.77
2019-03-21T18:00:07.072Z,30.20
2019-03-21T18:02:35.637Z,33.50
2019-03-21T18:05:06.917Z,31.33
2019-03-21T18:07:35.421Z,32.80
2019-03-21T18:10:10.095Z,32.45
2019-03-21T18:12:38.536Z,30.55
2019-03-21T18:15:07.667Z,35.23
2019-03-21T18:17:36.114Z,32.40
2019-03-21T18:20:06.127Z,34.05
2019-03-21T18:22:34.572Z,30.32
2019-03-21T18:25:04.015Z,30.90
2019-03-21T18:27:32.521Z,32.63
2019-03-21T18:30:00.960Z,31.75
2019-03-21T18:32:29.443Z,33.65
2019-03-21T18:34:57.964Z,34.83
2019-03-21T18:37:26.488Z,35.58
2019-03-21T18:39:55.114Z,33.02
2019-03-21T18:42:23.599Z,29.50
2019-03-21T18:44:52.045Z,33.80
2019-03-21T18:47:20.723Z,29.75
2019-03-21T18:49:49.169Z,27.60
2019-03-21T18:52:17.613Z,27.50
2019-03-21T18:54:46.141Z,28.57
2019-03-21T18:57:14.584Z,28.80
2019-03-21T18:59:43.043Z,27.32
2019-03-21T19:02:11.619Z,29.07
2019-03-21T19:04:40.143Z,27.48
2019-03-21T19:07:08.603Z,27.15
2019-03-21T19:09:37.082Z,28.77
2019-03-21T19:12:05.736Z,27.70
2019-03-21T19:14:34.186Z,27.52
2019-03-21T19:17:02.661Z,25.15
2019-03-21T19:19:31.106Z,31.37
2019-03-21T19:21:59.582Z,28.25
2019-03-21T19:24:28.033Z,28.05
2019-03-21T19:26:56.870Z,26.05
2019-03-21T19:29:25.417Z,27.90
2019-03-21T19:31:53.968Z,31.68
2019-03-21T19:34:22.417Z,29.75
2019-03-21T19:36:50.860Z,28.98
2019-03-21T19:39:19.365Z,31.00
2019-03-21T19:41:47.806Z,27.73
2019-03-21T19:44:16.250Z,28.52
2019-03-21T19:46:44.854Z,28.10
2019-03-21T19:49:13.302Z,27.32
2019-03-21T19:51:41.751Z,27.22
2019-03-21T19:54:10.220Z,30.48
2019-03-21T19:56:38.733Z,29.48
2019-03-21T19:59:07.367Z,29.60
2019-03-21T20:01:35.858Z,26.70
2019-03-21T20:04:04.470Z,29.42
2019-03-21T20:06:32.919Z,25.40
2019-03-21T20:09:01.374Z,27.25
2019-03-21T20:11:30.009Z,27.37
2019-03-21T20:13:58.457Z,26.23
2019-03-21T20:16:26.907Z,26.65
2019-03-21T20:18:55.411Z,28.32
2019-03-21T20:21:23.858Z,29.75
2019-03-21T20:23:52.312Z,30.48
2019-03-21T20:26:20.814Z,30.72
2019-03-21T20:28:49.259Z,27.70
2019-03-21T20:31:17.719Z,29.45
2019-03-21T20:33:46.285Z,29.67
2019-03-21T20:36:14.868Z,29.60
2019-03-21T20:38:43.392Z,28.75
2019-03-21T20:41:11.848Z,27.55
2019-03-21T20:43:40.330Z,28.85
2019-03-21T20:46:08.777Z,28.47
2019-03-21T20:48:36.176Z,32.13
2019-03-21T20:51:04.695Z,31.25
2019-03-21T20:53:33.183Z,29.15
2019-03-21T20:56:01.667Z,28.15
2019-03-21T20:58:30.195Z,30.92
2019-03-21T21:00:59.236Z,30.92
2019-03-21T21:03:27.714Z,28.75
2019-03-21T21:05:56.245Z,28.62
2019-03-21T21:08:24.866Z,27.77
2019-03-21T21:10:53.393Z,30.30
2019-03-21T21:13:21.828Z,29.55
2019-03-21T21:15:50.312Z,29.87
2019-03-21T21:18:18.768Z,30.45
2019-03-21T21:20:47.290Z,32.78
2019-03-21T21:23:15.747Z,29.00
2019-03-21T21:25:44.190Z,29.75
2019-03-21T21:28:12.708Z,29.77
2019-03-21T21:30:41.169Z,30.27
2019-03-21T21:33:09.698Z,29.45
2019-03-21T21:35:38.278Z,33.23
2019-03-21T21:38:06.810Z,28.32
2019-03-21T21:40:35.257Z,32.45
2019-03-21T21:43:03.787Z,34.25
2019-03-21T21:45:32.227Z,33.15
2019-03-21T21:48:00.677Z,30.27
2019-03-21T21:50:29.162Z,31.33
2019-03-21T21:52:57.614Z,31.45
2019-03-21T21:55:26.104Z,31.73
2019-03-21T21:57:54.551Z,29.20
2019-03-21T22:00:23.257Z,33.85
2019-03-21T22:02:52.588Z,32.03
2019-03-21T22:05:21.048Z,32.77
2019-03-21T22:07:49.506Z,32.07
2019-03-21T22:10:18.020Z,31.33
2019-03-21T22:12:46.604Z,29.60
2019-03-21T22:15:16.398Z,28.97
2019-03-21T22:17:45.162Z,33.53
2019-03-21T22:20:15.658Z,33.50
2019-03-21T22:25:12.149Z,30.17
2019-03-21T22:27:40.602Z,30.93
2019-03-21T22:30:14.385Z,33.30
2019-03-21T22:32:42.977Z,32.83
2019-03-21T22:35:12.053Z,31.33
2019-03-21T22:37:40.554Z,27.80
2019-03-21T22:40:12.086Z,30.10
2019-03-21T22:42:40.618Z,29.13
2019-03-21T22:45:11.491Z,28.83
2019-03-21T22:47:39.994Z,26.93
2019-03-21T22:50:16.282Z,29.70
2019-03-21T22:52:45.616Z,30.93
2019-03-21T22:55:14.808Z,34.03
2019-03-21T22:57:43.603Z,32.37
2019-03-21T23:00:20.429Z,31.87
2019-03-21T23:02:48.892Z,33.53
2019-03-21T23:05:17.657Z,30.37
2019-03-21T23:07:46.143Z,26.73
2019-03-21T23:10:15.038Z,29.37
2019-03-21T23:12:43.599Z,28.80
2019-03-21T23:15:13.227Z,31.47
2019-03-21T23:17:41.813Z,30.65
2019-03-21T23:20:14.933Z,28.40
2019-03-21T23:22:43.830Z,31.40
2019-03-21T23:25:34.857Z,30.80
2019-03-21T23:28:03.386Z,28.03
2019-03-21T23:30:33.457Z,31.30
2019-03-21T23:33:02.225Z,29.52
2019-03-21T23:35:31.191Z,30.97
2019-03-21T23:37:59.704Z,30.97
2019-03-21T23:40:28.195Z,30.70
2019-03-21T23:42:56.636Z,32.97
2019-03-21T23:45:25.129Z,31.93
2019-03-21T23:47:53.646Z,28.97
2019-03-21T23:50:22.156Z,31.37
2019-03-21T23:52:50.619Z,31.73
2019-03-21T23:55:19.070Z,30.37
2019-03-21T23:57:47.950Z,31.73
